Time;durP1;ratioP1;P1;durP2;ratioP2;P2;SDS_P1;SDS_P2;PMS_P1;PMS_P2;Temp;Humidity;BMP_temperature;BMP_pressure;BME280_temperature;BME280_humidity;BME280_pressure;Samples;Min_cycle;Max_cycle;Signal;HPM_P1;HPM_P2
2022/05/13 00:02:11;;;;;;;22.48;10.20;;;15.90;99.90;;;;;;5030507;28;20030;-74
2022/05/13 00:04:38;;;;;;;18.02;10.30;;;15.90;99.90;;;;;;5028027;28;20045;-74
2022/05/13 00:07:04;;;;;;;18.95;10.55;;;15.90;99.90;;;;;;5026132;28;20030;-72
2022/05/13 00:12:16;;;;;;;21.17;11.20;;;15.80;99.90;;;;;;5028283;28;20036;-73
2022/05/13 00:14:42;;;;;;;20.08;11.15;;;15.80;99.90;;;;;;5030432;28;20583;-73
2022/05/13 00:17:08;;;;;;;18.52;10.57;;;15.80;99.90;;;;;;5028549;28;20041;-75
2022/05/13 00:19:34;;;;;;;22.70;10.82;;;15.80;99.90;;;;;;5030278;28;20036;-74
2022/05/13 00:22:00;;;;;;;19.70;10.98;;;15.80;99.90;;;;;;5028425;28;20021;-71
2022/05/13 00:24:26;;;;;;;17.77;10.85;;;15.80;99.90;;;;;;5030968;28;20083;-74
2022/05/13 00:26:52;;;;;;;21.08;10.82;;;15.80;99.90;;;;;;5027728;28;20029;-73
2022/05/13 00:29:17;;;;;;;24.73;11.80;;;15.80;99.90;;;;;;5028849;28;20036;-74
2022/05/13 00:31:43;;;;;;;24.25;11.27;;;15.80;99.90;;;;;;5028065;28;20397;-74
2022/05/13 00:34:09;;;;;;;20.88;11.88;;;15.80;99.90;;;;;;5021240;28;20744;-73
2022/05/13 00:36:36;;;;;;;22.25;11.30;;;15.80;99.90;;;;;;5028038;28;20030;-74
2022/05/13 00:39:03;;;;;;;18.35;11.05;;;15.80;99.90;;;;;;5025233;28;20053;-72
2022/05/13 00:41:29;;;;;;;20.52;11.27;;;15.80;99.90;;;;;;5026984;28;20030;-73
2022/05/13 00:43:55;;;;;;;21.58;11.80;;;15.80;99.90;;;;;;5030002;28;20049;-73
2022/05/13 00:46:23;;;;;;;23.88;12.45;;;15.90;99.90;;;;;;4991705;28;20214;-74
2022/05/13 00:48:49;;;;;;;21.48;11.30;;;15.90;99.90;;;;;;5026468;28;20029;-73
2022/05/13 00:51:19;;;;;;;19.70;10.32;;;15.80;99.90;;;;;;5029824;28;20104;-74
2022/05/13 00:53:46;;;;;;;21.48;10.73;;;15.80;99.90;;;;;;5028860;28;20033;-73
2022/05/13 00:56:12;;;;;;;18.63;11.20;;;15.80;99.90;;;;;;5027799;28;20029;-73
2022/05/13 00:58:41;;;;;;;20.95;10.73;;;15.90;99.90;;;;;;5023182;28;20024;-74
2022/05/13 01:01:07;;;;;;;20.05;11.45;;;15.90;99.90;;;;;;5023709;28;20037;-73
2022/05/13 01:03:36;;;;;;;20.27;11.13;;;15.80;99.90;;;;;;5028839;28;20041;-74
2022/05/13 01:06:05;;;;;;;18.17;10.45;;;15.80;99.90;;;;;;5028659;28;20141;-73
2022/05/13 01:08:32;;;;;;;19.38;11.73;;;15.90;99.90;;;;;;5025041;28;20476;-74
2022/05/13 01:11:02;;;;;;;20.33;10.85;;;15.90;99.90;;;;;;5026890;28;20061;-74
2022/05/13 01:13:29;;;;;;;19.98;10.52;;;15.80;99.90;;;;;;5028209;28;20042;-74
2022/05/13 01:15:56;;;;;;;21.85;11.15;;;15.80;99.90;;;;;;5029942;28;20048;-74
2022/05/13 01:18:31;;;;;;;19.60;10.40;;;15.90;99.90;;;;;;5025833;28;20025;-73
2022/05/13 01:20:58;;;;;;;19.30;10.38;;;15.90;99.90;;;;;;5022895;28;20508;-73
2022/05/13 01:23:30;;;;;;;22.65;10.82;;;15.90;99.90;;;;;;5023743;28;20034;-74
2022/05/13 01:26:08;;;;;;;21.83;12.18;;;15.90;99.90;;;;;;5026293;28;20053;-73
2022/05/13 01:28:37;;;;;;;18.40;10.57;;;15.90;99.90;;;;;;5025253;28;20040;-73
2022/05/13 01:31:07;;;;;;;21.05;11.43;;;15.80;99.90;;;;;;5028674;28;20087;-71
2022/05/13 01:33:33;;;;;;;15.85;10.00;;;15.90;99.90;;;;;;5028202;28;20060;-73
2022/05/13 01:36:02;;;;;;;22.02;11.13;;;15.80;99.90;;;;;;5028206;28;20760;-72
2022/05/13 01:38:32;;;;;;;22.60;10.65;;;15.80;99.90;;;;;;5022187;28;20045;-73
2022/05/13 01:40:58;;;;;;;21.45;10.93;;;15.80;99.90;;;;;;5027526;28;20121;-73
2022/05/13 01:43:24;;;;;;;16.65;10.30;;;15.80;99.90;;;;;;5022911;28;20109;-74
2022/05/13 01:45:50;;;;;;;19.30;10.90;;;15.80;99.90;;;;;;5030199;28;20450;-73
2022/05/13 01:48:16;;;;;;;21.65;11.40;;;15.80;99.90;;;;;;5023309;28;20034;-73
2022/05/13 01:50:42;;;;;;;22.17;10.52;;;15.80;99.90;;;;;;5016776;28;20029;-73
2022/05/13 01:53:08;;;;;;;19.52;11.20;;;15.80;99.90;;;;;;5024369;28;20033;-74
2022/05/13 01:55:35;;;;;;;19.67;11.10;;;15.70;99.90;;;;;;5026393;28;20091;-74
2022/05/13 01:58:01;;;;;;;20.20;11.00;;;15.80;99.90;;;;;;5025170;28;20097;-72
2022/05/13 02:00:28;;;;;;;19.02;11.63;;;15.80;99.90;;;;;;5023547;28;20124;-73
2022/05/13 02:05:38;;;;;;;22.13;10.88;;;15.80;99.90;;;;;;5026306;28;20033;-73
2022/05/13 02:08:04;;;;;;;17.38;10.88;;;15.80;99.90;;;;;;5026626;28;20180;-72
2022/05/13 02:10:30;;;;;;;25.48;12.05;;;15.80;99.90;;;;;;5027929;28;20041;-73
2022/05/13 02:12:56;;;;;;;20.60;11.82;;;15.80;99.90;;;;;;5026279;28;20323;-72
2022/05/13 02:15:22;;;;;;;21.35;12.00;;;15.80;99.90;;;;;;5023479;28;20103;-72
2022/05/13 02:17:48;;;;;;;23.15;11.40;;;15.80;99.90;;;;;;5025538;28;20544;-73
2022/05/13 02:20:14;;;;;;;21.13;11.50;;;15.80;99.90;;;;;;5028796;28;20025;-74
2022/05/13 02:22:39;;;;;;;22.92;12.60;;;15.80;99.90;;;;;;5027613;28;20389;-73
2022/05/13 02:25:06;;;;;;;21.48;11.98;;;15.80;99.90;;;;;;5026705;28;20029;-72
2022/05/13 02:27:32;;;;;;;20.98;12.70;;;15.80;99.90;;;;;;5027733;28;20034;-74
2022/05/13 02:29:58;;;;;;;21.35;12.60;;;15.80;99.90;;;;;;5024795;28;20030;-71
2022/05/13 02:32:24;;;;;;;23.83;12.63;;;15.70;99.90;;;;;;5026242;28;20040;-73
2022/05/13 02:34:50;;;;;;;26.35;13.77;;;15.70;99.90;;;;;;5010345;28;20034;-73
2022/05/13 02:37:16;;;;;;;21.08;12.23;;;15.70;99.90;;;;;;5025188;28;20041;-73
2022/05/13 02:39:41;;;;;;;23.92;13.05;;;15.70;99.90;;;;;;5024702;28;20045;-73
2022/05/13 02:42:07;;;;;;;23.83;13.63;;;15.60;99.90;;;;;;5025899;28;20109;-72
2022/05/13 02:44:33;;;;;;;24.98;13.30;;;15.60;99.90;;;;;;5024651;28;20034;-72
2022/05/13 02:46:59;;;;;;;27.25;13.95;;;15.60;99.90;;;;;;5025516;28;20401;-72
2022/05/13 02:49:24;;;;;;;27.42;13.55;;;15.60;99.90;;;;;;5026823;28;20854;-72
2022/05/13 02:51:51;;;;;;;25.42;13.80;;;15.60;99.90;;;;;;5025091;28;20481;-72
2022/05/13 02:54:17;;;;;;;22.88;13.35;;;15.60;99.90;;;;;;5026939;28;20095;-72
2022/05/13 02:56:43;;;;;;;25.75;13.85;;;15.70;99.90;;;;;;5026915;28;20021;-71
2022/05/13 02:59:10;;;;;;;23.52;14.00;;;15.60;99.90;;;;;;5024169;28;20033;-75
2022/05/13 03:01:36;;;;;;;26.90;13.80;;;15.60;99.90;;;;;;5027581;28;20525;-71
2022/05/13 03:04:01;;;;;;;23.63;13.25;;;15.60;99.90;;;;;;5027527;28;20029;-72
2022/05/13 03:06:27;;;;;;;24.35;13.50;;;15.60;99.90;;;;;;5024919;28;20025;-74
2022/05/13 03:08:54;;;;;;;25.25;14.48;;;15.60;99.90;;;;;;5022834;28;20111;-72
2022/05/13 03:11:23;;;;;;;26.48;14.80;;;15.60;99.90;;;;;;5026890;28;20043;-73
2022/05/13 03:13:50;;;;;;;27.80;14.30;;;15.60;99.90;;;;;;5030050;28;20040;-73
2022/05/13 03:16:21;;;;;;;29.67;14.02;;;15.60;99.90;;;;;;5012089;28;20025;-73
2022/05/13 03:18:47;;;;;;;;;;;15.60;99.90;;;;;;5030161;28;20033;-73
2022/05/13 03:21:13;;;;;;;26.13;14.18;;;15.50;99.90;;;;;;5031204;28;19917;-73
2022/05/13 03:23:43;;;;;;;26.17;14.48;;;15.60;99.90;;;;;;5031308;28;20037;-73
2022/05/13 03:26:10;;;;;;;23.52;13.75;;;15.60;99.90;;;;;;5030122;28;20040;-73
2022/05/13 03:28:36;;;;;;;22.23;14.15;;;15.50;99.90;;;;;;5027988;28;20049;-72
2022/05/13 03:31:02;;;;;;;23.20;13.48;;;15.50;99.90;;;;;;5031189;28;20106;-72
2022/05/13 03:33:27;;;;;;;21.63;12.65;;;15.50;99.90;;;;;;5024749;28;20045;-72
2022/05/13 03:35:53;;;;;;;30.20;12.43;;;15.50;99.90;;;;;;5031495;28;20046;-73
2022/05/13 03:38:19;;;;;;;20.55;11.07;;;15.50;99.90;;;;;;5030612;28;20042;-73
2022/05/13 03:40:46;;;;;;;20.20;9.98;;;15.40;99.90;;;;;;5030761;28;20440;-73
2022/05/13 03:43:12;;;;;;;17.05;9.35;;;15.40;99.90;;;;;;5028261;28;20030;-71
2022/05/13 03:45:38;;;;;;;16.05;8.95;;;15.30;99.90;;;;;;5009795;28;20029;-72
2022/05/13 03:48:05;;;;;;;16.48;9.23;;;15.30;99.90;;;;;;5028243;28;20044;-72
2022/05/13 03:50:32;;;;;;;17.85;9.32;;;15.30;99.90;;;;;;5029930;28;20045;-72
2022/05/13 03:52:59;;;;;;;17.40;9.60;;;15.20;99.90;;;;;;4996915;28;20037;-72
2022/05/13 03:55:25;;;;;;;15.00;8.88;;;15.30;99.90;;;;;;5023033;28;20432;-72
2022/05/13 03:57:50;;;;;;;18.98;9.27;;;15.30;99.90;;;;;;5029417;28;20033;-74
2022/05/13 04:00:16;;;;;;;18.58;8.43;;;15.30;99.90;;;;;;5023576;28;20472;-73
2022/05/13 04:02:42;;;;;;;16.83;8.77;;;15.30;99.90;;;;;;5030656;28;20045;-72
2022/05/13 04:10:38;;;;;;;20.55;8.88;;;15.30;99.90;;;;;;5029229;28;20505;-73
2022/05/13 04:16:07;;;;;;;16.58;9.30;;;15.20;99.90;;;;;;5021138;28;20056;-72
2022/05/13 04:18:36;;;;;;;15.88;9.10;;;15.20;99.90;;;;;;4994095;28;20029;-71
2022/05/13 04:21:04;;;;;;;15.50;8.80;;;15.30;99.90;;;;;;5026747;28;20033;-71
2022/05/13 04:23:32;;;;;;;24.90;9.90;;;15.30;99.90;;;;;;5027179;28;20863;-70
2022/05/13 04:25:58;;;;;;;20.00;10.77;;;15.30;99.90;;;;;;5029726;28;20060;-71
2022/05/13 04:28:23;;;;;;;23.35;11.93;;;15.30;99.90;;;;;;5024929;28;20049;-71
2022/05/13 04:30:49;;;;;;;20.65;10.93;;;15.30;99.90;;;;;;5030304;28;20085;-71
2022/05/13 04:33:15;;;;;;;26.02;12.13;;;15.30;99.90;;;;;;5024684;28;20090;-72
2022/05/13 04:35:41;;;;;;;22.08;11.95;;;15.30;99.90;;;;;;5029991;28;20081;-72
2022/05/13 04:38:07;;;;;;;21.63;12.07;;;15.30;99.90;;;;;;5027712;28;20081;-71
2022/05/13 04:40:33;;;;;;;18.92;11.57;;;15.30;99.90;;;;;;5027122;28;20037;-72
2022/05/13 04:43:00;;;;;;;21.40;12.00;;;15.40;99.90;;;;;;5029472;28;20030;-72
2022/05/13 04:45:28;;;;;;;23.27;11.80;;;15.30;99.90;;;;;;5027963;28;20034;-71
2022/05/13 04:48:26;;;;;;;23.17;11.55;;;15.40;99.90;;;;;;5028855;28;20029;-71
2022/05/13 04:50:57;;;;;;;24.63;11.48;;;15.40;99.90;;;;;;5029695;28;20030;-72
2022/05/13 04:53:25;;;;;;;;;;;15.40;99.90;;;;;;5026355;28;20033;-73
2022/05/13 04:55:52;;;;;;;20.80;11.07;;;15.40;99.90;;;;;;5029257;28;19913;-72
2022/05/13 04:58:18;;;;;;;22.92;11.85;;;15.40;99.90;;;;;;5029448;28;20025;-70
2022/05/13 05:00:46;;;;;;;20.38;10.60;;;15.30;99.90;;;;;;5028159;28;20458;-71
2022/05/13 05:03:12;;;;;;;20.67;10.68;;;15.30;99.90;;;;;;5027866;28;20367;-71
2022/05/13 05:05:38;;;;;;;21.90;10.80;;;15.30;99.90;;;;;;5029567;28;20044;-71
2022/05/13 05:08:04;;;;;;;16.13;9.73;;;15.30;99.90;;;;;;5030660;28;20425;-71
2022/05/13 05:10:30;;;;;;;23.33;10.32;;;15.30;99.90;;;;;;5028282;28;20037;-71
2022/05/13 05:12:57;;;;;;;18.83;9.77;;;15.30;99.90;;;;;;5030754;28;20381;-71
2022/05/13 05:15:24;;;;;;;21.48;10.52;;;15.30;99.90;;;;;;5025249;28;20649;-72
2022/05/13 05:17:50;;;;;;;21.13;11.30;;;15.40;99.90;;;;;;5027632;28;20033;-71
2022/05/13 05:20:17;;;;;;;20.30;10.85;;;15.40;99.90;;;;;;5028737;28;20466;-71
2022/05/13 05:22:46;;;;;;;20.30;11.00;;;15.50;99.90;;;;;;5026878;28;20033;-71
2022/05/13 05:25:15;;;;;;;18.73;10.98;;;15.50;99.90;;;;;;5024071;28;20529;-72
2022/05/13 05:27:41;;;;;;;22.58;11.50;;;15.50;99.90;;;;;;5028047;28;20105;-71
2022/05/13 05:30:09;;;;;;;21.73;10.98;;;15.40;99.90;;;;;;5028872;28;20060;-72
2022/05/13 05:32:39;;;;;;;19.35;10.68;;;15.50;99.90;;;;;;5008708;28;20601;-72
2022/05/13 05:35:17;;;;;;;17.63;10.48;;;15.50;99.90;;;;;;5029388;28;20029;-72
2022/05/13 05:37:42;;;;;;;20.27;11.52;;;15.50;99.90;;;;;;5009987;28;20045;-72
2022/05/13 05:40:09;;;;;;;17.65;10.63;;;15.50;99.90;;;;;;5012985;28;20521;-72
2022/05/13 05:42:40;;;;;;;20.15;10.65;;;15.50;99.90;;;;;;5029218;28;20608;-71
2022/05/13 05:45:09;;;;;;;17.17;10.45;;;15.50;99.90;;;;;;5028443;28;20037;-71
2022/05/13 05:47:35;;;;;;;25.02;11.57;;;15.50;99.90;;;;;;5025223;28;20056;-74
2022/05/13 05:50:03;;;;;;;22.38;10.80;;;15.60;99.90;;;;;;5030255;28;20029;-72
2022/05/13 05:52:28;;;;;;;17.70;9.57;;;15.70;99.90;;;;;;5028260;28;20056;-73
2022/05/13 05:57:38;;;;;;;22.67;9.75;;;15.70;99.90;;;;;;5028613;28;20029;-72
2022/05/13 06:00:06;;;;;;;16.60;8.95;;;15.70;99.90;;;;;;5028064;28;20029;-71
2022/05/13 06:02:33;;;;;;;19.15;9.55;;;15.70;99.90;;;;;;5026596;28;20116;-71
2022/05/13 06:04:59;;;;;;;21.95;10.02;;;15.60;99.90;;;;;;5029194;28;20048;-72
2022/05/13 06:07:26;;;;;;;22.20;10.27;;;15.60;99.90;;;;;;5010124;28;20034;-70
2022/05/13 06:09:53;;;;;;;17.38;9.68;;;15.60;99.90;;;;;;5028637;28;20037;-72
2022/05/13 06:12:19;;;;;;;16.35;9.30;;;15.60;99.90;;;;;;5028652;28;20030;-69
2022/05/13 06:14:45;;;;;;;19.38;8.70;;;15.50;99.90;;;;;;5028097;28;20042;-70
2022/05/13 06:17:11;;;;;;;19.90;9.07;;;15.50;99.90;;;;;;5027477;28;20049;-71
2022/05/13 06:19:37;;;;;;;19.17;9.63;;;15.60;99.90;;;;;;5028753;28;20048;-69
2022/05/13 06:22:04;;;;;;;21.30;10.05;;;15.60;99.90;;;;;;5026876;28;20032;-69
2022/05/13 06:24:30;;;;;;;16.98;9.48;;;15.60;99.90;;;;;;5027495;28;20607;-71
2022/05/13 06:26:56;;;;;;;16.90;9.15;;;15.60;99.90;;;;;;5028275;28;20036;-70
2022/05/13 06:29:24;;;;;;;16.20;8.13;;;15.60;99.90;;;;;;5028527;28;20628;-70
2022/05/13 06:31:51;;;;;;;20.90;8.80;;;15.70;99.90;;;;;;5028234;28;20029;-71
2022/05/13 06:34:17;;;;;;;18.85;8.93;;;15.70;99.90;;;;;;5027133;28;20099;-70
2022/05/13 06:36:43;;;;;;;24.20;9.73;;;15.80;99.90;;;;;;5027625;28;20029;-71
2022/05/13 06:39:09;;;;;;;14.57;9.10;;;15.80;99.90;;;;;;5027294;28;20391;-71
2022/05/13 06:41:40;;;;;;;17.42;9.35;;;15.80;99.90;;;;;;5027105;28;20101;-71
2022/05/13 06:44:07;;;;;;;17.55;8.55;;;15.90;99.90;;;;;;5027170;28;20026;-72
2022/05/13 06:46:35;;;;;;;19.90;9.27;;;15.80;99.90;;;;;;5026403;28;20565;-71
2022/05/13 06:49:04;;;;;;;22.90;9.85;;;15.80;99.90;;;;;;5029127;28;20773;-71
2022/05/13 06:51:30;;;;;;;18.90;9.68;;;15.80;99.90;;;;;;5023162;28;20757;-71
2022/05/13 06:53:56;;;;;;;21.42;10.15;;;15.90;99.90;;;;;;5028419;28;20032;-70
2022/05/13 06:56:22;;;;;;;21.25;10.15;;;16.00;99.90;;;;;;5027827;28;20386;-72
2022/05/13 06:58:48;;;;;;;15.90;10.13;;;16.10;99.90;;;;;;5027545;28;20126;-72
2022/05/13 07:01:14;;;;;;;17.38;9.52;;;16.20;99.90;;;;;;5030201;28;20030;-72
2022/05/13 07:03:39;;;;;;;19.27;9.70;;;16.30;99.90;;;;;;5026133;28;20037;-71
2022/05/13 07:06:05;;;;;;;18.08;9.15;;;16.30;99.90;;;;;;5025891;28;20484;-71
2022/05/13 07:08:31;;;;;;;18.27;8.40;;;16.30;99.90;;;;;;5027301;28;20044;-70
2022/05/13 07:10:57;;;;;;;19.63;8.82;;;16.20;99.90;;;;;;5008789;28;20066;-71
2022/05/13 07:13:24;;;;;;;16.35;9.32;;;16.20;99.90;;;;;;5026131;28;20033;-71
2022/05/13 07:15:49;;;;;;;19.65;9.15;;;16.10;99.90;;;;;;5028230;28;20022;-70
2022/05/13 07:18:15;;;;;;;18.40;8.93;;;16.20;99.90;;;;;;5027261;28;20381;-72
2022/05/13 07:20:41;;;;;;;16.63;9.30;;;16.30;99.90;;;;;;5027843;28;20143;-70
2022/05/13 07:23:07;;;;;;;17.05;8.90;;;16.30;99.90;;;;;;5026725;28;20041;-70
2022/05/13 07:25:33;;;;;;;14.75;9.07;;;16.30;99.90;;;;;;5028233;28;20038;-70
2022/05/13 07:27:59;;;;;;;21.33;10.25;;;16.30;99.90;;;;;;5028235;28;20426;-72
2022/05/13 07:30:25;;;;;;;20.80;10.20;;;16.20;99.90;;;;;;5025375;28;20402;-71
2022/05/13 07:32:50;;;;;;;20.65;10.80;;;16.30;99.90;;;;;;5027641;28;20026;-72
2022/05/13 07:35:16;;;;;;;22.63;9.93;;;16.20;99.90;;;;;;5009340;28;20040;-70
2022/05/13 07:37:42;;;;;;;20.25;9.93;;;16.20;99.90;;;;;;5027793;28;20034;-72
2022/05/13 07:42:53;;;;;;;18.00;9.77;;;16.20;99.90;;;;;;5027698;28;20608;-71
2022/05/13 07:45:18;;;;;;;17.60;9.70;;;16.40;99.90;;;;;;5027022;28;20112;-72
2022/05/13 07:47:44;;;;;;;19.40;10.32;;;16.40;99.90;;;;;;5024640;28;20107;-73
2022/05/13 07:50:12;;;;;;;20.08;10.35;;;16.40;99.90;;;;;;5009609;28;20025;-71
2022/05/13 07:52:40;;;;;;;20.63;11.02;;;16.40;99.90;;;;;;5029565;28;20085;-71
2022/05/13 07:55:08;;;;;;;19.90;9.98;;;16.40;99.90;;;;;;5029681;28;20030;-70
2022/05/13 07:57:40;;;;;;;20.90;10.18;;;16.40;99.90;;;;;;5025768;28;20394;-72
2022/05/13 08:00:49;;;;;;;20.33;9.90;;;16.30;99.90;;;;;;5032113;28;20037;-70
2022/05/13 08:03:00;;;;;;;18.95;9.88;;;16.20;99.90;;;;;;5021237;28;20041;-70
2022/05/13 08:05:29;;;;;;;18.58;10.30;;;16.20;99.90;;;;;;5031755;28;20107;-70
2022/05/13 08:08:07;;;;;;;19.20;10.45;;;16.10;99.90;;;;;;5028492;28;20037;-71
2022/05/13 08:10:34;;;;;;;18.27;10.55;;;16.10;99.90;;;;;;5013400;28;20423;-68
2022/05/13 08:12:59;;;;;;;17.10;10.35;;;16.10;99.90;;;;;;5030983;28;20034;-73
2022/05/13 08:15:26;;;;;;;18.25;10.57;;;16.10;99.90;;;;;;5029903;28;20394;-72
2022/05/13 08:17:52;;;;;;;16.88;9.95;;;16.10;99.90;;;;;;5030991;28;20568;-70
2022/05/13 08:20:18;;;;;;;22.00;10.13;;;16.10;99.90;;;;;;5027402;28;20120;-71
2022/05/13 08:22:45;;;;;;;17.67;9.98;;;16.10;99.90;;;;;;5029805;28;20040;-71
2022/05/13 08:25:11;;;;;;;18.35;10.32;;;16.10;99.90;;;;;;5029921;28;20026;-71
2022/05/13 08:27:37;;;;;;;21.00;10.55;;;16.10;99.90;;;;;;5029988;28;20041;-71
2022/05/13 08:30:04;;;;;;;24.75;11.27;;;16.10;99.90;;;;;;5030792;28;20120;-71
2022/05/13 08:32:30;;;;;;;24.13;9.82;;;16.20;99.90;;;;;;5030348;28;20029;-71
2022/05/13 08:34:57;;;;;;;16.88;9.98;;;16.30;99.90;;;;;;5029855;28;20536;-71
2022/05/13 08:37:23;;;;;;;18.40;10.23;;;16.40;99.90;;;;;;5031562;28;20037;-69
2022/05/13 08:39:48;;;;;;;24.40;10.73;;;16.60;99.90;;;;;;5029833;28;20990;-70
2022/05/13 08:42:41;;;;;;;21.52;11.00;;;16.70;99.90;;;;;;5031372;28;20033;-71
2022/05/13 08:45:08;;;;;;;19.00;9.57;;;16.80;99.90;;;;;;5029561;28;20494;-70
2022/05/13 08:47:50;;;;;;;19.65;8.55;;;16.90;99.90;;;;;;5029866;28;20100;-70
2022/05/13 08:50:23;;;;;;;15.70;8.43;;;16.90;99.90;;;;;;5029871;28;20478;-71
2022/05/13 08:53:08;;;;;;;25.45;8.38;;;16.90;99.90;;;;;;5029140;28;20543;-72
2022/05/13 08:55:46;;;;;;;19.05;7.43;;;17.10;99.90;;;;;;5028719;28;20044;-71
2022/05/13 08:58:18;;;;;;;19.40;6.32;;;17.50;99.90;;;;;;5030349;28;20025;-71
2022/05/13 09:00:53;;;;;;;13.38;6.80;;;17.80;99.90;;;;;;5024391;28;20025;-71
2022/05/13 09:03:37;;;;;;;14.60;6.65;;;18.20;99.90;;;;;;5026173;28;20500;-72
2022/05/13 09:06:05;;;;;;;16.45;7.47;;;18.50;99.90;;;;;;5027739;28;20638;-71
2022/05/13 09:08:33;;;;;;;14.05;7.65;;;18.40;99.90;;;;;;5029023;28;20072;-72
2022/05/13 09:11:08;;;;;;;12.65;6.50;;;18.50;99.90;;;;;;5026235;28;20033;-70
2022/05/13 09:13:55;;;;;;;16.67;7.85;;;18.60;99.90;;;;;;5027405;28;20033;-72
2022/05/13 09:16:39;;;;;;;16.02;7.35;;;18.60;99.90;;;;;;5011126;28;20040;-70
2022/05/13 09:19:18;;;;;;;15.45;6.97;;;18.50;99.90;;;;;;5026298;28;20103;-71
2022/05/13 09:21:44;;;;;;;20.80;7.50;;;18.40;99.90;;;;;;5040731;28;20037;-72
2022/05/13 09:24:11;;;;;;;17.73;7.68;;;18.10;99.90;;;;;;5011816;28;20049;-71
2022/05/13 09:26:38;;;;;;;17.95;6.80;;;17.80;99.90;;;;;;5029231;28;20045;-71
2022/05/13 09:29:16;;;;;;;21.05;7.18;;;17.70;99.90;;;;;;5027872;28;20465;-72
2022/05/13 09:32:02;;;;;;;13.98;6.13;;;17.60;99.90;;;;;;5009935;28;20029;-72
2022/05/13 09:34:49;;;;;;;20.58;7.38;;;17.50;99.90;;;;;;5021968;28;20037;-71
2022/05/13 09:37:22;;;;;;;12.68;6.68;;;17.60;99.90;;;;;;5028206;28;20048;-72
2022/05/13 09:40:04;;;;;;;13.18;6.38;;;17.60;99.90;;;;;;5031047;28;20464;-72
2022/05/13 09:42:42;;;;;;;15.63;6.30;;;17.60;99.90;;;;;;5032728;28;20058;-71
2022/05/13 09:45:27;;;;;;;15.77;7.25;;;17.50;99.90;;;;;;5028304;28;20048;-72
2022/05/13 09:48:18;;;;;;;17.17;7.47;;;17.40;99.90;;;;;;5023307;28;20821;-72
2022/05/13 09:50:45;;;;;;;;;;;17.20;99.90;;;;;;5010326;28;20505;-72
2022/05/13 09:53:22;;;;;;;19.25;7.25;;;17.20;99.90;;;;;;5022248;28;19909;-72
2022/05/13 09:55:54;;;;;;;18.67;7.50;;;17.40;99.90;;;;;;5011501;28;20025;-73
2022/05/13 09:58:49;;;;;;;16.25;6.65;;;17.60;99.90;;;;;;5029146;28;20473;-72
2022/05/13 10:01:28;;;;;;;11.50;5.35;;;17.80;99.90;;;;;;5029412;28;20041;-73
2022/05/13 10:04:10;;;;;;;10.43;5.03;;;17.80;99.90;;;;;;5024045;28;20021;-70
2022/05/13 10:06:37;;;;;;;13.93;5.65;;;17.80;99.90;;;;;;5020955;28;20078;-71
2022/05/13 10:14:44;;;;;;;20.60;5.80;;;17.80;99.90;;;;;;5026687;28;20048;-75
2022/05/13 10:17:25;;;;;;;14.60;5.43;;;17.70;99.90;;;;;;5021176;28;20044;-71
2022/05/13 10:20:06;;;;;;;15.05;5.68;;;17.70;99.90;;;;;;5027031;28;20025;-71
2022/05/13 10:22:36;;;;;;;11.55;5.25;;;17.70;99.90;;;;;;5027647;28;20029;-71
2022/05/13 10:25:18;;;;;;;9.63;5.17;;;17.70;99.90;;;;;;5028976;28;20116;-71
2022/05/13 10:27:47;;;;;;;10.48;5.10;;;17.70;99.90;;;;;;5025611;28;20485;-73
2022/05/13 10:30:21;;;;;;;10.77;5.25;;;17.80;99.90;;;;;;5027407;28;20033;-72
2022/05/13 10:33:21;;;;;;;13.13;5.82;;;17.80;99.90;;;;;;5024006;28;20105;-72
2022/05/13 10:35:47;;;;;;;;;;;17.90;99.90;;;;;;5020077;28;20042;-72
2022/05/13 10:38:38;;;;;;;14.95;6.30;;;18.00;99.90;;;;;;5027355;28;19921;-71
2022/05/13 10:41:37;;;;;;;13.57;6.00;;;18.00;99.90;;;;;;5024536;28;20532;-72
2022/05/13 10:44:17;;;;;;;13.80;5.45;;;17.80;99.90;;;;;;5024454;28;20063;-74
2022/05/13 10:46:55;;;;;;;16.75;5.80;;;17.70;99.90;;;;;;5025451;28;20033;-71
2022/05/13 10:49:28;;;;;;;15.02;5.95;;;17.50;99.90;;;;;;5026168;28;20033;-72
2022/05/13 10:52:05;;;;;;;30.98;6.70;;;17.50;99.90;;;;;;5028712;28;20063;-72
2022/05/13 10:54:39;;;;;;;23.13;6.10;;;17.60;99.90;;;;;;5029053;28;20030;-73
2022/05/13 10:57:12;;;;;;;14.25;5.68;;;17.60;99.90;;;;;;5029042;28;20033;-71
2022/05/13 11:00:00;;;;;;;16.65;6.10;;;17.90;99.90;;;;;;5020195;28;20052;-71
2022/05/13 11:02:47;;;;;;;15.07;7.65;;;18.20;99.90;;;;;;5029679;28;20091;-73
2022/05/13 11:05:28;;;;;;;15.30;6.60;;;18.40;99.90;;;;;;5011585;28;20113;-73
2022/05/13 11:08:16;;;;;;;14.25;6.90;;;18.50;99.90;;;;;;5028290;28;20564;-71
2022/05/13 11:11:00;;;;;;;17.60;7.10;;;18.60;99.90;;;;;;5028317;28;20033;-72
2022/05/13 11:13:34;;;;;;;9.98;5.90;;;18.50;99.90;;;;;;5028579;28;20073;-73
2022/05/13 11:16:24;;;;;;;16.98;6.65;;;18.40;99.90;;;;;;5028588;28;20087;-74
2022/05/13 11:19:04;;;;;;;16.02;6.72;;;18.30;99.90;;;;;;5025026;28;20029;-73
2022/05/13 11:21:52;;;;;;;15.77;7.00;;;18.10;99.90;;;;;;5026340;28;20033;-72
2022/05/13 11:27:33;;;;;;;18.40;6.97;;;18.10;99.90;;;;;;5017423;28;20036;-72
2022/05/13 11:30:08;;;;;;;13.35;6.20;;;18.00;99.90;;;;;;5030410;28;20268;-73
2022/05/13 11:32:52;;;;;;;19.65;6.63;;;18.00;99.90;;;;;;5032304;28;20120;-71
2022/05/13 11:35:38;;;;;;;15.35;6.10;;;18.20;99.90;;;;;;5030954;28;20037;-73
2022/05/13 11:38:16;;;;;;;14.18;6.50;;;18.30;99.90;;;;;;5031120;28;20029;-72
2022/05/13 11:40:53;;;;;;;14.68;6.68;;;18.40;99.90;;;;;;5030714;28;20096;-73
2022/05/13 11:43:46;;;;;;;12.57;6.45;;;18.60;99.90;;;;;;5028135;28;20082;-74
2022/05/13 11:46:41;;;;;;;13.95;7.18;;;18.80;99.90;;;;;;5017263;28;20676;-71
2022/05/13 11:49:25;;;;;;;17.30;6.88;;;18.90;99.90;;;;;;5030980;28;20505;-71
2022/05/13 11:51:52;;;;;;;13.18;6.72;;;19.00;99.90;;;;;;5030279;28;20095;-72
2022/05/13 11:54:27;;;;;;;10.80;5.97;;;18.80;99.90;;;;;;5029189;28;20050;-72
2022/05/13 11:57:21;;;;;;;14.25;6.95;;;18.70;99.90;;;;;;5016950;28;20084;-73
2022/05/13 11:59:49;;;;;;;11.35;5.80;;;18.80;99.90;;;;;;5028839;28;20040;-72
2022/05/13 12:02:49;;;;;;;15.05;5.57;;;19.10;99.90;;;;;;5031555;28;20472;-72
2022/05/13 12:05:17;;;;;;;15.60;6.47;;;19.30;99.90;;;;;;5032231;28;20060;-71
2022/05/13 12:08:07;;;;;;;14.80;5.93;;;19.60;99.90;;;;;;5027525;28;20049;-72
2022/05/13 12:11:11;;;;;;;12.00;5.70;;;19.50;99.90;;;;;;5030232;28;20069;-73
2022/05/13 12:13:56;;;;;;;11.60;5.85;;;19.80;99.90;;;;;;4984259;28;20061;-73
2022/05/13 12:16:28;;;;;;;20.50;6.75;;;20.10;99.90;;;;;;5031565;28;20029;-73
2022/05/13 12:19:08;;;;;;;11.10;6.28;;;20.30;99.90;;;;;;5031337;28;20056;-71
2022/05/13 12:21:43;;;;;;;14.07;6.57;;;20.20;99.90;;;;;;5030025;28;20065;-73
2022/05/13 12:24:12;;;;;;;14.05;6.55;;;19.80;99.90;;;;;;5030662;28;20026;-73
2022/05/13 12:26:53;;;;;;;15.68;6.20;;;19.60;99.90;;;;;;5028909;28;20041;-72
2022/05/13 12:30:02;;;;;;;12.75;6.30;;;19.90;99.90;;;;;;5021337;28;20040;-73
2022/05/13 12:32:45;;;;;;;13.60;6.38;;;20.10;99.90;;;;;;4991974;28;20479;-74
2022/05/13 12:38:22;;;;;;;11.13;5.78;;;20.10;99.90;;;;;;5025451;28;20048;-73
2022/05/13 12:40:59;;;;;;;14.52;6.00;;;20.00;99.90;;;;;;5025935;28;20428;-73
2022/05/13 12:43:51;;;;;;;15.82;6.80;;;20.10;99.90;;;;;;5026211;28;20041;-75
2022/05/13 12:46:38;;;;;;;16.52;6.60;;;19.80;99.90;;;;;;5000576;28;20312;-76
2022/05/13 12:49:09;;;;;;;15.80;6.10;;;19.60;99.90;;;;;;5028450;28;20025;-75
2022/05/13 12:51:42;;;;;;;12.43;5.90;;;19.90;99.90;;;;;;5030207;28;20084;-77
2022/05/13 12:54:09;;;;;;;14.52;6.50;;;19.80;99.90;;;;;;5029248;28;20075;-75
2022/05/13 12:56:45;;;;;;;15.07;5.57;;;19.70;99.90;;;;;;5028829;28;20025;-74
2022/05/13 12:59:15;;;;;;;15.55;5.70;;;19.80;99.90;;;;;;5026968;28;20026;-74
2022/05/13 13:01:53;;;;;;;13.38;5.72;;;20.00;99.90;;;;;;5028808;28;20113;-73
2022/05/13 13:04:23;;;;;;;12.63;5.88;;;20.30;99.90;;;;;;5028259;28;20042;-74
2022/05/13 13:06:51;;;;;;;13.18;5.90;;;20.20;99.90;;;;;;5029046;28;20037;-75
2022/05/13 13:09:44;;;;;;;15.45;5.72;;;20.20;99.90;;;;;;5030812;28;20041;-75
2022/05/13 13:12:27;;;;;;;18.00;6.13;;;20.20;99.90;;;;;;5026812;28;20033;-74
2022/05/13 13:15:25;;;;;;;14.13;5.90;;;20.20;99.90;;;;;;5010547;28;20069;-74
2022/05/13 13:18:00;;;;;;;9.25;5.07;;;20.40;99.90;;;;;;5005164;28;20041;-75
2022/05/13 13:20:29;;;;;;;14.65;5.40;;;20.60;99.90;;;;;;5013225;28;20033;-74
2022/05/13 13:23:06;;;;;;;11.85;5.55;;;20.70;99.90;;;;;;5011386;28;20087;-75
2022/05/13 13:25:31;;;;;;;12.38;5.25;;;20.90;99.90;;;;;;5047367;28;20087;-75